sensor_id;sensor_type;location;lat;lon;timestamp;P1;durP1;ratioP1;P2;durP2;ratioP2
73474;SDS011;61711;52.266;10.542;2022-07-24T00:01:54;5.25;;;3.30;;
73474;SDS011;61711;52.266;10.542;2022-07-24T00:04:20;5.05;;;3.78;;
73474;SDS011;61711;52.266;10.542;2022-07-24T00:06:46;5.72;;;3.38;;
73474;SDS011;61711;52.266;10.542;2022-07-24T00:09:13;7.65;;;3.55;;
73474;SDS011;61711;52.266;10.542;2022-07-24T00:11:39;4.60;;;3.13;;
73474;SDS011;61711;52.266;10.542;2022-07-24T00:14:05;5.95;;;3.40;;
73474;SDS011;61711;52.266;10.542;2022-07-24T00:16:31;5.60;;;3.50;;
73474;SDS011;61711;52.266;10.542;2022-07-24T00:18:57;5.13;;;3.95;;
73474;SDS011;61711;52.266;10.542;2022-07-24T00:21:23;6.85;;;4.35;;
73474;SDS011;61711;52.266;10.542;2022-07-24T00:23:49;4.07;;;3.50;;
73474;SDS011;61711;52.266;10.542;2022-07-24T00:26:15;6.43;;;4.30;;
73474;SDS011;61711;52.266;10.542;2022-07-24T00:28:41;5.22;;;4.25;;
73474;SDS011;61711;52.266;10.542;2022-07-24T00:31:07;8.60;;;4.88;;
73474;SDS011;61711;52.266;10.542;2022-07-24T00:33:33;10.77;;;5.68;;
73474;SDS011;61711;52.266;10.542;2022-07-24T00:35:59;12.98;;;5.63;;
73474;SDS011;61711;52.266;10.542;2022-07-24T00:38:25;17.20;;;6.65;;
73474;SDS011;61711;52.266;10.542;2022-07-24T00:40:52;15.40;;;6.63;;
73474;SDS011;61711;52.266;10.542;2022-07-24T00:43:18;13.60;;;6.68;;
73474;SDS011;61711;52.266;10.542;2022-07-24T00:45:44;8.43;;;5.30;;
73474;SDS011;61711;52.266;10.542;2022-07-24T00:48:11;7.50;;;5.20;;
73474;SDS011;61711;52.266;10.542;2022-07-24T00:50:37;10.23;;;6.50;;
73474;SDS011;61711;52.266;10.542;2022-07-24T00:53:03;10.38;;;6.35;;
73474;SDS011;61711;52.266;10.542;2022-07-24T00:55:29;13.23;;;6.45;;
73474;SDS011;61711;52.266;10.542;2022-07-24T00:57:55;12.50;;;6.60;;
73474;SDS011;61711;52.266;10.542;2022-07-24T01:00:23;9.65;;;6.60;;
73474;SDS011;61711;52.266;10.542;2022-07-24T01:02:49;11.40;;;6.85;;
73474;SDS011;61711;52.266;10.542;2022-07-24T01:05:16;10.80;;;6.90;;
73474;SDS011;61711;52.266;10.542;2022-07-24T01:07:42;8.68;;;6.45;;
73474;SDS011;61711;52.266;10.542;2022-07-24T01:10:09;10.38;;;6.55;;
73474;SDS011;61711;52.266;10.542;2022-07-24T01:12:37;11.48;;;6.43;;
73474;SDS011;61711;52.266;10.542;2022-07-24T01:15:04;8.85;;;6.43;;
73474;SDS011;61711;52.266;10.542;2022-07-24T01:17:31;9.63;;;6.03;;
73474;SDS011;61711;52.266;10.542;2022-07-24T01:19:58;8.20;;;4.80;;
73474;SDS011;61711;52.266;10.542;2022-07-24T01:22:24;8.27;;;4.80;;
73474;SDS011;61711;52.266;10.542;2022-07-24T01:24:51;6.65;;;4.40;;
73474;SDS011;61711;52.266;10.542;2022-07-24T01:27:17;8.23;;;4.60;;
73474;SDS011;61711;52.266;10.542;2022-07-24T01:29:43;6.75;;;4.47;;
73474;SDS011;61711;52.266;10.542;2022-07-24T01:32:09;7.88;;;4.53;;
73474;SDS011;61711;52.266;10.542;2022-07-24T01:34:35;9.23;;;4.90;;
73474;SDS011;61711;52.266;10.542;2022-07-24T01:37:02;7.65;;;5.45;;
73474;SDS011;61711;52.266;10.542;2022-07-24T01:39:28;8.82;;;6.30;;
73474;SDS011;61711;52.266;10.542;2022-07-24T01:41:54;9.35;;;5.30;;
73474;SDS011;61711;52.266;10.542;2022-07-24T01:44:20;8.30;;;5.18;;
73474;SDS011;61711;52.266;10.542;2022-07-24T01:46:46;6.88;;;4.53;;
73474;SDS011;61711;52.266;10.542;2022-07-24T01:49:12;7.68;;;4.72;;
73474;SDS011;61711;52.266;10.542;2022-07-24T01:51:38;6.78;;;4.28;;
73474;SDS011;61711;52.266;10.542;2022-07-24T01:54:04;6.78;;;4.63;;
73474;SDS011;61711;52.266;10.542;2022-07-24T01:56:31;5.93;;;4.30;;
73474;SDS011;61711;52.266;10.542;2022-07-24T01:58:58;6.78;;;4.30;;
73474;SDS011;61711;52.266;10.542;2022-07-24T02:01:24;8.45;;;4.40;;
73474;SDS011;61711;52.266;10.542;2022-07-24T02:03:50;7.45;;;4.22;;
73474;SDS011;61711;52.266;10.542;2022-07-24T02:06:16;8.70;;;4.40;;
73474;SDS011;61711;52.266;10.542;2022-07-24T02:08:43;6.50;;;3.95;;
73474;SDS011;61711;52.266;10.542;2022-07-24T02:11:09;6.22;;;4.25;;
73474;SDS011;61711;52.266;10.542;2022-07-24T02:13:36;9.73;;;3.92;;
73474;SDS011;61711;52.266;10.542;2022-07-24T02:16:03;6.18;;;3.55;;
73474;SDS011;61711;52.266;10.542;2022-07-24T02:18:29;7.70;;;3.78;;
73474;SDS011;61711;52.266;10.542;2022-07-24T02:20:55;4.10;;;3.55;;
73474;SDS011;61711;52.266;10.542;2022-07-24T02:23:21;5.05;;;3.58;;
73474;SDS011;61711;52.266;10.542;2022-07-24T02:25:48;5.95;;;3.28;;
73474;SDS011;61711;52.266;10.542;2022-07-24T02:28:14;4.22;;;3.30;;
73474;SDS011;61711;52.266;10.542;2022-07-24T02:30:41;4.13;;;3.45;;
73474;SDS011;61711;52.266;10.542;2022-07-24T02:33:07;12.77;;;3.90;;
73474;SDS011;61711;52.266;10.542;2022-07-24T02:35:34;7.80;;;3.90;;
73474;SDS011;61711;52.266;10.542;2022-07-24T02:38:00;6.65;;;3.63;;
73474;SDS011;61711;52.266;10.542;2022-07-24T02:40:26;5.53;;;3.40;;
73474;SDS011;61711;52.266;10.542;2022-07-24T02:42:52;5.93;;;3.50;;
73474;SDS011;61711;52.266;10.542;2022-07-24T02:45:18;5.30;;;3.38;;
73474;SDS011;61711;52.266;10.542;2022-07-24T02:47:48;5.43;;;3.40;;
73474;SDS011;61711;52.266;10.542;2022-07-24T02:50:15;7.03;;;3.20;;
73474;SDS011;61711;52.266;10.542;2022-07-24T02:52:41;5.60;;;3.30;;
73474;SDS011;61711;52.266;10.542;2022-07-24T02:55:07;3.95;;;3.20;;
73474;SDS011;61711;52.266;10.542;2022-07-24T02:57:33;4.10;;;3.15;;
73474;SDS011;61711;52.266;10.542;2022-07-24T02:59:59;6.20;;;3.40;;
73474;SDS011;61711;52.266;10.542;2022-07-24T03:02:25;4.63;;;3.13;;
73474;SDS011;61711;52.266;10.542;2022-07-24T03:04:51;6.32;;;3.22;;
73474;SDS011;61711;52.266;10.542;2022-07-24T03:07:17;7.35;;;3.03;;
73474;SDS011;61711;52.266;10.542;2022-07-24T03:09:43;4.45;;;3.30;;
73474;SDS011;61711;52.266;10.542;2022-07-24T03:12:09;4.18;;;2.85;;
73474;SDS011;61711;52.266;10.542;2022-07-24T03:14:35;5.53;;;3.28;;
73474;SDS011;61711;52.266;10.542;2022-07-24T03:17:03;4.90;;;2.97;;
73474;SDS011;61711;52.266;10.542;2022-07-24T03:19:29;4.65;;;3.03;;
73474;SDS011;61711;52.266;10.542;2022-07-24T03:21:55;4.18;;;2.45;;
73474;SDS011;61711;52.266;10.542;2022-07-24T03:24:22;5.07;;;2.67;;
73474;SDS011;61711;52.266;10.542;2022-07-24T03:26:48;3.22;;;2.47;;
73474;SDS011;61711;52.266;10.542;2022-07-24T03:29:14;2.90;;;2.60;;
73474;SDS011;61711;52.266;10.542;2022-07-24T03:31:40;3.80;;;2.60;;
73474;SDS011;61711;52.266;10.542;2022-07-24T03:34:06;4.65;;;2.85;;
73474;SDS011;61711;52.266;10.542;2022-07-24T03:36:32;4.55;;;2.72;;
73474;SDS011;61711;52.266;10.542;2022-07-24T03:38:58;5.22;;;2.70;;
73474;SDS011;61711;52.266;10.542;2022-07-24T03:41:24;5.43;;;2.65;;
73474;SDS011;61711;52.266;10.542;2022-07-24T03:43:50;6.97;;;2.65;;
73474;SDS011;61711;52.266;10.542;2022-07-24T03:46:16;3.83;;;2.55;;
73474;SDS011;61711;52.266;10.542;2022-07-24T03:48:42;3.92;;;2.85;;
73474;SDS011;61711;52.266;10.542;2022-07-24T03:51:09;4.32;;;2.60;;
73474;SDS011;61711;52.266;10.542;2022-07-24T03:53:35;4.80;;;3.10;;
73474;SDS011;61711;52.266;10.542;2022-07-24T03:56:03;6.47;;;2.50;;
73474;SDS011;61711;52.266;10.542;2022-07-24T03:58:29;2.72;;;2.38;;
73474;SDS011;61711;52.266;10.542;2022-07-24T04:00:56;5.30;;;2.70;;
73474;SDS011;61711;52.266;10.542;2022-07-24T04:03:22;3.80;;;3.10;;
73474;SDS011;61711;52.266;10.542;2022-07-24T04:05:48;2.85;;;2.55;;
73474;SDS011;61711;52.266;10.542;2022-07-24T04:08:14;3.35;;;2.67;;
73474;SDS011;61711;52.266;10.542;2022-07-24T04:10:40;6.72;;;3.10;;
73474;SDS011;61711;52.266;10.542;2022-07-24T04:13:06;5.38;;;3.35;;
73474;SDS011;61711;52.266;10.542;2022-07-24T04:15:32;4.10;;;3.08;;
73474;SDS011;61711;52.266;10.542;2022-07-24T04:17:58;5.43;;;2.97;;
73474;SDS011;61711;52.266;10.542;2022-07-24T04:20:24;8.30;;;3.17;;
73474;SDS011;61711;52.266;10.542;2022-07-24T04:22:51;3.50;;;3.00;;
73474;SDS011;61711;52.266;10.542;2022-07-24T04:25:17;4.93;;;3.30;;
73474;SDS011;61711;52.266;10.542;2022-07-24T04:27:43;5.55;;;3.35;;
73474;SDS011;61711;52.266;10.542;2022-07-24T04:30:10;5.90;;;3.13;;
73474;SDS011;61711;52.266;10.542;2022-07-24T04:32:36;4.78;;;3.00;;
73474;SDS011;61711;52.266;10.542;2022-07-24T04:35:03;6.78;;;3.03;;
73474;SDS011;61711;52.266;10.542;2022-07-24T04:37:30;3.85;;;3.13;;
73474;SDS011;61711;52.266;10.542;2022-07-24T04:39:56;4.45;;;3.25;;
73474;SDS011;61711;52.266;10.542;2022-07-24T04:42:22;5.00;;;3.00;;
73474;SDS011;61711;52.266;10.542;2022-07-24T04:44:48;3.67;;;2.75;;
73474;SDS011;61711;52.266;10.542;2022-07-24T04:47:14;4.75;;;2.80;;
73474;SDS011;61711;52.266;10.542;2022-07-24T04:49:41;3.05;;;2.70;;
73474;SDS011;61711;52.266;10.542;2022-07-24T04:52:07;4.93;;;3.00;;
73474;SDS011;61711;52.266;10.542;2022-07-24T04:54:34;4.55;;;3.03;;
73474;SDS011;61711;52.266;10.542;2022-07-24T04:57:00;4.15;;;2.67;;
73474;SDS011;61711;52.266;10.542;2022-07-24T04:59:26;4.80;;;2.90;;
73474;SDS011;61711;52.266;10.542;2022-07-24T05:01:52;5.15;;;3.10;;
73474;SDS011;61711;52.266;10.542;2022-07-24T05:04:18;5.13;;;2.90;;
73474;SDS011;61711;52.266;10.542;2022-07-24T05:06:44;3.92;;;2.92;;
73474;SDS011;61711;52.266;10.542;2022-07-24T05:09:11;4.45;;;2.78;;
73474;SDS011;61711;52.266;10.542;2022-07-24T05:11:38;4.70;;;2.70;;
73474;SDS011;61711;52.266;10.542;2022-07-24T05:14:04;3.53;;;2.58;;
73474;SDS011;61711;52.266;10.542;2022-07-24T05:16:30;3.47;;;2.60;;
73474;SDS011;61711;52.266;10.542;2022-07-24T05:18:56;3.25;;;2.40;;
73474;SDS011;61711;52.266;10.542;2022-07-24T05:21:22;5.70;;;2.80;;
73474;SDS011;61711;52.266;10.542;2022-07-24T05:23:48;5.88;;;2.65;;
73474;SDS011;61711;52.266;10.542;2022-07-24T05:26:14;3.22;;;2.78;;
73474;SDS011;61711;52.266;10.542;2022-07-24T05:28:40;4.95;;;2.60;;
73474;SDS011;61711;52.266;10.542;2022-07-24T05:31:06;5.43;;;2.65;;
73474;SDS011;61711;52.266;10.542;2022-07-24T05:33:33;7.18;;;2.63;;
73474;SDS011;61711;52.266;10.542;2022-07-24T05:35:59;4.05;;;2.72;;
73474;SDS011;61711;52.266;10.542;2022-07-24T05:38:25;4.63;;;2.63;;
73474;SDS011;61711;52.266;10.542;2022-07-24T05:40:51;3.85;;;2.60;;
73474;SDS011;61711;52.266;10.542;2022-07-24T05:43:17;4.00;;;2.53;;
73474;SDS011;61711;52.266;10.542;2022-07-24T05:45:43;2.65;;;2.35;;
73474;SDS011;61711;52.266;10.542;2022-07-24T05:48:10;7.38;;;2.67;;
73474;SDS011;61711;52.266;10.542;2022-07-24T05:50:36;2.78;;;2.38;;
73474;SDS011;61711;52.266;10.542;2022-07-24T05:53:02;3.45;;;2.25;;
73474;SDS011;61711;52.266;10.542;2022-07-24T05:55:28;2.67;;;2.35;;
73474;SDS011;61711;52.266;10.542;2022-07-24T05:57:54;3.83;;;2.33;;
73474;SDS011;61711;52.266;10.542;2022-07-24T06:00:21;3.40;;;2.33;;
73474;SDS011;61711;52.266;10.542;2022-07-24T06:02:47;3.25;;;2.40;;
73474;SDS011;61711;52.266;10.542;2022-07-24T06:05:13;3.75;;;2.40;;
73474;SDS011;61711;52.266;10.542;2022-07-24T06:07:40;3.00;;;2.30;;
73474;SDS011;61711;52.266;10.542;2022-07-24T06:10:07;4.85;;;2.10;;
73474;SDS011;61711;52.266;10.542;2022-07-24T06:12:33;4.43;;;2.40;;
73474;SDS011;61711;52.266;10.542;2022-07-24T06:14:59;3.30;;;2.00;;
73474;SDS011;61711;52.266;10.542;2022-07-24T06:17:25;3.00;;;2.20;;
73474;SDS011;61711;52.266;10.542;2022-07-24T06:19:51;3.50;;;2.30;;
73474;SDS011;61711;52.266;10.542;2022-07-24T06:22:17;4.20;;;2.30;;
73474;SDS011;61711;52.266;10.542;2022-07-24T06:24:43;4.18;;;2.10;;
73474;SDS011;61711;52.266;10.542;2022-07-24T06:27:09;2.75;;;1.90;;
73474;SDS011;61711;52.266;10.542;2022-07-24T06:29:36;3.83;;;2.10;;
73474;SDS011;61711;52.266;10.542;2022-07-24T06:32:02;2.17;;;1.90;;
73474;SDS011;61711;52.266;10.542;2022-07-24T06:34:28;4.10;;;2.20;;
73474;SDS011;61711;52.266;10.542;2022-07-24T06:36:54;2.80;;;2.50;;
73474;SDS011;61711;52.266;10.542;2022-07-24T06:39:20;2.55;;;2.00;;
73474;SDS011;61711;52.266;10.542;2022-07-24T06:41:46;4.20;;;2.22;;
73474;SDS011;61711;52.266;10.542;2022-07-24T06:44:13;2.65;;;1.90;;
73474;SDS011;61711;52.266;10.542;2022-07-24T06:46:39;2.55;;;2.35;;
73474;SDS011;61711;52.266;10.542;2022-07-24T06:49:05;3.92;;;2.00;;
73474;SDS011;61711;52.266;10.542;2022-07-24T06:51:31;2.75;;;2.20;;
73474;SDS011;61711;52.266;10.542;2022-07-24T06:53:57;4.15;;;2.40;;
73474;SDS011;61711;52.266;10.542;2022-07-24T06:56:23;3.15;;;2.20;;
73474;SDS011;61711;52.266;10.542;2022-07-24T06:58:49;2.92;;;2.00;;
73474;SDS011;61711;52.266;10.542;2022-07-24T07:01:15;2.40;;;2.10;;
73474;SDS011;61711;52.266;10.542;2022-07-24T07:03:41;6.13;;;2.63;;
73474;SDS011;61711;52.266;10.542;2022-07-24T07:06:08;2.17;;;1.90;;
73474;SDS011;61711;52.266;10.542;2022-07-24T07:08:34;4.53;;;2.33;;
73474;SDS011;61711;52.266;10.542;2022-07-24T07:11:00;2.78;;;1.85;;
73474;SDS011;61711;52.266;10.542;2022-07-24T07:13:26;5.45;;;2.10;;
73474;SDS011;61711;52.266;10.542;2022-07-24T07:15:52;2.75;;;2.20;;
73474;SDS011;61711;52.266;10.542;2022-07-24T07:18:18;2.55;;;2.05;;
73474;SDS011;61711;52.266;10.542;2022-07-24T07:20:44;2.20;;;2.00;;
73474;SDS011;61711;52.266;10.542;2022-07-24T07:23:10;2.75;;;2.00;;
73474;SDS011;61711;52.266;10.542;2022-07-24T07:25:36;3.10;;;2.03;;
73474;SDS011;61711;52.266;10.542;2022-07-24T07:28:03;3.00;;;2.10;;
73474;SDS011;61711;52.266;10.542;2022-07-24T07:30:29;3.42;;;2.10;;
73474;SDS011;61711;52.266;10.542;2022-07-24T07:32:55;3.33;;;2.22;;
73474;SDS011;61711;52.266;10.542;2022-07-24T07:35:21;3.25;;;1.90;;
73474;SDS011;61711;52.266;10.542;2022-07-24T07:37:48;2.90;;;2.08;;
73474;SDS011;61711;52.266;10.542;2022-07-24T07:40:15;4.18;;;1.95;;
73474;SDS011;61711;52.266;10.542;2022-07-24T07:42:41;2.78;;;2.00;;
73474;SDS011;61711;52.266;10.542;2022-07-24T07:45:07;2.50;;;2.10;;
73474;SDS011;61711;52.266;10.542;2022-07-24T07:47:35;3.55;;;2.10;;
73474;SDS011;61711;52.266;10.542;2022-07-24T07:50:02;3.70;;;2.25;;
73474;SDS011;61711;52.266;10.542;2022-07-24T07:52:28;3.08;;;2.20;;
73474;SDS011;61711;52.266;10.542;2022-07-24T07:54:54;5.82;;;2.40;;
73474;SDS011;61711;52.266;10.542;2022-07-24T07:57:20;3.63;;;2.10;;
73474;SDS011;61711;52.266;10.542;2022-07-24T07:59:47;3.50;;;2.20;;
73474;SDS011;61711;52.266;10.542;2022-07-24T08:02:13;2.97;;;2.35;;
73474;SDS011;61711;52.266;10.542;2022-07-24T08:04:40;3.25;;;2.03;;
73474;SDS011;61711;52.266;10.542;2022-07-24T08:07:06;4.43;;;2.05;;
73474;SDS011;61711;52.266;10.542;2022-07-24T08:09:32;3.83;;;2.17;;
73474;SDS011;61711;52.266;10.542;2022-07-24T08:11:58;3.28;;;2.25;;
73474;SDS011;61711;52.266;10.542;2022-07-24T08:14:24;3.45;;;2.20;;
73474;SDS011;61711;52.266;10.542;2022-07-24T08:16:50;2.42;;;2.20;;
73474;SDS011;61711;52.266;10.542;2022-07-24T08:19:18;2.78;;;2.50;;
73474;SDS011;61711;52.266;10.542;2022-07-24T08:21:44;2.50;;;2.30;;
73474;SDS011;61711;52.266;10.542;2022-07-24T08:24:11;3.65;;;2.70;;
73474;SDS011;61711;52.266;10.542;2022-07-24T08:26:37;3.85;;;2.53;;
73474;SDS011;61711;52.266;10.542;2022-07-24T08:29:03;3.35;;;2.45;;
73474;SDS011;61711;52.266;10.542;2022-07-24T08:31:29;3.28;;;2.53;;
73474;SDS011;61711;52.266;10.542;2022-07-24T08:33:55;2.80;;;2.60;;
73474;SDS011;61711;52.266;10.542;2022-07-24T08:36:21;3.28;;;2.75;;
73474;SDS011;61711;52.266;10.542;2022-07-24T08:38:47;4.93;;;3.42;;
73474;SDS011;61711;52.266;10.542;2022-07-24T08:41:14;11.95;;;9.05;;
73474;SDS011;61711;52.266;10.542;2022-07-24T08:43:40;6.80;;;3.45;;
73474;SDS011;61711;52.266;10.542;2022-07-24T08:46:07;5.25;;;3.10;;
73474;SDS011;61711;52.266;10.542;2022-07-24T08:48:36;4.70;;;3.00;;
73474;SDS011;61711;52.266;10.542;2022-07-24T08:51:02;6.25;;;3.33;;
73474;SDS011;61711;52.266;10.542;2022-07-24T08:53:29;4.05;;;2.95;;
73474;SDS011;61711;52.266;10.542;2022-07-24T08:55:55;5.55;;;2.90;;
73474;SDS011;61711;52.266;10.542;2022-07-24T08:58:21;3.25;;;2.85;;
73474;SDS011;61711;52.266;10.542;2022-07-24T09:00:47;5.60;;;3.40;;
73474;SDS011;61711;52.266;10.542;2022-07-24T09:03:13;5.82;;;2.80;;
73474;SDS011;61711;52.266;10.542;2022-07-24T09:06:01;3.65;;;3.13;;
73474;SDS011;61711;52.266;10.542;2022-07-24T09:08:26;4.80;;;3.38;;
73474;SDS011;61711;52.266;10.542;2022-07-24T09:10:55;3.80;;;2.97;;
73474;SDS011;61711;52.266;10.542;2022-07-24T09:13:24;3.83;;;3.28;;
73474;SDS011;61711;52.266;10.542;2022-07-24T09:15:51;6.55;;;3.85;;
73474;SDS011;61711;52.266;10.542;2022-07-24T09:18:30;6.43;;;3.85;;
73474;SDS011;61711;52.266;10.542;2022-07-24T09:20:57;5.63;;;3.72;;
73474;SDS011;61711;52.266;10.542;2022-07-24T09:23:23;4.70;;;3.78;;
73474;SDS011;61711;52.266;10.542;2022-07-24T09:25:53;4.78;;;3.60;;
73474;SDS011;61711;52.266;10.542;2022-07-24T09:28:20;5.82;;;3.60;;
73474;SDS011;61711;52.266;10.542;2022-07-24T09:30:47;4.35;;;3.55;;
73474;SDS011;61711;52.266;10.542;2022-07-24T09:35:40;4.78;;;3.67;;
73474;SDS011;61711;52.266;10.542;2022-07-24T09:38:10;4.15;;;3.53;;
73474;SDS011;61711;52.266;10.542;2022-07-24T09:40:43;6.28;;;3.78;;
73474;SDS011;61711;52.266;10.542;2022-07-24T09:43:28;5.65;;;4.13;;
73474;SDS011;61711;52.266;10.542;2022-07-24T09:45:56;4.35;;;3.63;;
73474;SDS011;61711;52.266;10.542;2022-07-24T09:49:08;4.22;;;3.78;;
73474;SDS011;61711;52.266;10.542;2022-07-24T09:51:09;5.22;;;3.95;;
73474;SDS011;61711;52.266;10.542;2022-07-24T09:53:36;5.35;;;4.07;;
73474;SDS011;61711;52.266;10.542;2022-07-24T09:56:07;4.45;;;4.05;;
73474;SDS011;61711;52.266;10.542;2022-07-24T09:58:34;7.63;;;4.05;;
73474;SDS011;61711;52.266;10.542;2022-07-24T10:01:00;5.97;;;4.13;;
73474;SDS011;61711;52.266;10.542;2022-07-24T10:03:28;7.97;;;4.30;;
73474;SDS011;61711;52.266;10.542;2022-07-24T10:05:55;8.45;;;4.50;;
73474;SDS011;61711;52.266;10.542;2022-07-24T10:08:22;5.55;;;4.00;;
73474;SDS011;61711;52.266;10.542;2022-07-24T10:10:51;5.35;;;4.20;;
73474;SDS011;61711;52.266;10.542;2022-07-24T10:13:17;5.05;;;4.10;;
73474;SDS011;61711;52.266;10.542;2022-07-24T10:18:16;4.50;;;4.10;;
73474;SDS011;61711;52.266;10.542;2022-07-24T10:20:44;4.47;;;3.95;;
73474;SDS011;61711;52.266;10.542;2022-07-24T10:23:21;5.82;;;4.22;;
73474;SDS011;61711;52.266;10.542;2022-07-24T10:25:53;6.43;;;4.10;;
73474;SDS011;61711;52.266;10.542;2022-07-24T10:28:41;8.07;;;4.25;;
73474;SDS011;61711;52.266;10.542;2022-07-24T10:31:07;4.57;;;3.90;;
73474;SDS011;61711;52.266;10.542;2022-07-24T10:33:34;4.90;;;4.07;;
73474;SDS011;61711;52.266;10.542;2022-07-24T10:36:02;6.13;;;4.30;;
73474;SDS011;61711;52.266;10.542;2022-07-24T10:38:30;4.53;;;4.00;;
73474;SDS011;61711;52.266;10.542;2022-07-24T10:41:00;4.38;;;3.70;;
73474;SDS011;61711;52.266;10.542;2022-07-24T10:43:27;4.43;;;3.90;;
73474;SDS011;61711;52.266;10.542;2022-07-24T10:53:28;5.47;;;3.90;;
73474;SDS011;61711;52.266;10.542;2022-07-24T10:58:52;5.00;;;3.92;;
73474;SDS011;61711;52.266;10.542;2022-07-24T11:01:37;3.67;;;3.38;;
73474;SDS011;61711;52.266;10.542;2022-07-24T11:06:47;4.57;;;3.88;;
73474;SDS011;61711;52.266;10.542;2022-07-24T11:09:14;4.55;;;3.63;;
73474;SDS011;61711;52.266;10.542;2022-07-24T11:11:41;4.55;;;3.45;;
73474;SDS011;61711;52.266;10.542;2022-07-24T11:14:07;4.10;;;3.70;;
73474;SDS011;61711;52.266;10.542;2022-07-24T11:16:34;10.60;;;8.95;;
73474;SDS011;61711;52.266;10.542;2022-07-24T11:21:34;21.52;;;18.10;;
73474;SDS011;61711;52.266;10.542;2022-07-24T11:26:52;3.92;;;3.50;;
73474;SDS011;61711;52.266;10.542;2022-07-24T11:31:46;4.85;;;3.30;;
73474;SDS011;61711;52.266;10.542;2022-07-24T11:34:13;4.90;;;3.25;;
73474;SDS011;61711;52.266;10.542;2022-07-24T11:36:39;3.63;;;3.10;;
73474;SDS011;61711;52.266;10.542;2022-07-24T11:39:07;4.20;;;3.15;;
73474;SDS011;61711;52.266;10.542;2022-07-24T11:41:47;3.60;;;2.92;;
73474;SDS011;61711;52.266;10.542;2022-07-24T11:44:14;3.42;;;2.85;;
73474;SDS011;61711;52.266;10.542;2022-07-24T11:46:41;3.47;;;2.90;;
73474;SDS011;61711;52.266;10.542;2022-07-24T11:49:10;4.10;;;2.80;;
73474;SDS011;61711;52.266;10.542;2022-07-24T11:51:43;3.20;;;2.90;;
73474;SDS011;61711;52.266;10.542;2022-07-24T11:54:10;3.60;;;3.13;;
73474;SDS011;61711;52.266;10.542;2022-07-24T11:56:37;3.00;;;2.70;;
73474;SDS011;61711;52.266;10.542;2022-07-24T11:59:03;3.08;;;2.72;;
73474;SDS011;61711;52.266;10.542;2022-07-24T12:01:30;3.80;;;3.22;;
73474;SDS011;61711;52.266;10.542;2022-07-24T12:03:57;4.25;;;3.08;;
73474;SDS011;61711;52.266;10.542;2022-07-24T12:06:23;4.65;;;3.13;;
73474;SDS011;61711;52.266;10.542;2022-07-24T12:08:49;4.82;;;3.10;;
73474;SDS011;61711;52.266;10.542;2022-07-24T12:11:21;4.22;;;3.15;;
73474;SDS011;61711;52.266;10.542;2022-07-24T12:13:48;3.65;;;3.10;;
73474;SDS011;61711;52.266;10.542;2022-07-24T12:16:25;3.85;;;3.42;;
73474;SDS011;61711;52.266;10.542;2022-07-24T12:18:51;3.30;;;3.00;;
73474;SDS011;61711;52.266;10.542;2022-07-24T12:21:17;3.85;;;3.00;;
73474;SDS011;61711;52.266;10.542;2022-07-24T12:23:46;4.53;;;3.10;;
73474;SDS011;61711;52.266;10.542;2022-07-24T12:26:12;3.20;;;2.90;;
73474;SDS011;61711;52.266;10.542;2022-07-24T12:28:39;3.33;;;2.92;;
73474;SDS011;61711;52.266;10.542;2022-07-24T12:31:06;3.00;;;2.80;;
73474;SDS011;61711;52.266;10.542;2022-07-24T12:33:35;3.40;;;3.10;;
73474;SDS011;61711;52.266;10.542;2022-07-24T12:36:09;3.17;;;2.88;;
73474;SDS011;61711;52.266;10.542;2022-07-24T12:38:42;4.53;;;3.00;;
73474;SDS011;61711;52.266;10.542;2022-07-24T12:41:16;4.97;;;3.83;;
73474;SDS011;61711;52.266;10.542;2022-07-24T12:43:52;3.10;;;2.80;;
73474;SDS011;61711;52.266;10.542;2022-07-24T12:46:19;3.10;;;2.80;;
73474;SDS011;61711;52.266;10.542;2022-07-24T12:54:16;2.60;;;2.30;;
73474;SDS011;61711;52.266;10.542;2022-07-24T12:56:43;3.20;;;2.90;;
73474;SDS011;61711;52.266;10.542;2022-07-24T12:59:09;2.78;;;2.50;;
73474;SDS011;61711;52.266;10.542;2022-07-24T13:01:48;2.60;;;2.40;;
73474;SDS011;61711;52.266;10.542;2022-07-24T13:04:15;3.60;;;3.03;;
73474;SDS011;61711;52.266;10.542;2022-07-24T13:06:42;3.05;;;2.78;;
73474;SDS011;61711;52.266;10.542;2022-07-24T13:09:09;5.53;;;3.22;;
73474;SDS011;61711;52.266;10.542;2022-07-24T13:11:36;3.97;;;3.00;;
73474;SDS011;61711;52.266;10.542;2022-07-24T13:14:02;2.80;;;2.60;;
73474;SDS011;61711;52.266;10.542;2022-07-24T13:16:29;4.55;;;2.92;;
73474;SDS011;61711;52.266;10.542;2022-07-24T13:18:55;3.33;;;3.03;;
73474;SDS011;61711;52.266;10.542;2022-07-24T13:21:21;3.30;;;2.97;;
73474;SDS011;61711;52.266;10.542;2022-07-24T13:23:48;7.43;;;3.10;;
73474;SDS011;61711;52.266;10.542;2022-07-24T13:26:14;3.30;;;3.00;;
73474;SDS011;61711;52.266;10.542;2022-07-24T13:28:40;3.22;;;2.92;;
73474;SDS011;61711;52.266;10.542;2022-07-24T13:31:06;3.20;;;2.90;;
73474;SDS011;61711;52.266;10.542;2022-07-24T13:33:32;4.05;;;2.80;;
73474;SDS011;61711;52.266;10.542;2022-07-24T13:35:58;6.00;;;3.25;;
73474;SDS011;61711;52.266;10.542;2022-07-24T13:38:24;3.85;;;3.10;;
73474;SDS011;61711;52.266;10.542;2022-07-24T13:40:50;5.28;;;3.67;;
73474;SDS011;61711;52.266;10.542;2022-07-24T13:43:16;4.43;;;3.55;;
73474;SDS011;61711;52.266;10.542;2022-07-24T13:45:42;4.55;;;3.47;;
73474;SDS011;61711;52.266;10.542;2022-07-24T13:48:08;5.35;;;3.33;;
73474;SDS011;61711;52.266;10.542;2022-07-24T13:50:34;5.15;;;3.40;;
73474;SDS011;61711;52.266;10.542;2022-07-24T13:53:00;3.60;;;2.92;;
73474;SDS011;61711;52.266;10.542;2022-07-24T13:55:26;3.85;;;3.30;;
73474;SDS011;61711;52.266;10.542;2022-07-24T13:57:52;3.97;;;2.97;;
73474;SDS011;61711;52.266;10.542;2022-07-24T14:00:18;3.38;;;3.10;;
73474;SDS011;61711;52.266;10.542;2022-07-24T14:02:44;3.85;;;3.00;;
73474;SDS011;61711;52.266;10.542;2022-07-24T14:05:10;5.13;;;3.08;;
73474;SDS011;61711;52.266;10.542;2022-07-24T14:07:36;6.82;;;3.47;;
73474;SDS011;61711;52.266;10.542;2022-07-24T14:10:02;3.90;;;3.40;;
73474;SDS011;61711;52.266;10.542;2022-07-24T14:12:28;4.72;;;3.45;;
73474;SDS011;61711;52.266;10.542;2022-07-24T14:14:54;3.72;;;3.25;;
73474;SDS011;61711;52.266;10.542;2022-07-24T14:17:20;5.68;;;3.40;;
73474;SDS011;61711;52.266;10.542;2022-07-24T14:19:46;4.53;;;3.38;;
73474;SDS011;61711;52.266;10.542;2022-07-24T14:22:12;3.72;;;3.33;;
73474;SDS011;61711;52.266;10.542;2022-07-24T14:24:38;4.03;;;3.20;;
73474;SDS011;61711;52.266;10.542;2022-07-24T14:27:04;3.70;;;3.25;;
73474;SDS011;61711;52.266;10.542;2022-07-24T14:29:30;5.55;;;3.50;;
73474;SDS011;61711;52.266;10.542;2022-07-24T14:31:56;4.22;;;3.10;;
73474;SDS011;61711;52.266;10.542;2022-07-24T14:34:22;3.70;;;3.40;;
73474;SDS011;61711;52.266;10.542;2022-07-24T14:36:48;4.30;;;3.40;;
73474;SDS011;61711;52.266;10.542;2022-07-24T14:39:14;4.05;;;3.15;;
73474;SDS011;61711;52.266;10.542;2022-07-24T14:41:40;4.85;;;3.55;;
73474;SDS011;61711;52.266;10.542;2022-07-24T14:44:06;4.68;;;3.92;;
73474;SDS011;61711;52.266;10.542;2022-07-24T14:46:32;3.90;;;3.50;;
73474;SDS011;61711;52.266;10.542;2022-07-24T14:48:59;4.10;;;3.50;;
73474;SDS011;61711;52.266;10.542;2022-07-24T14:51:24;3.92;;;3.53;;
73474;SDS011;61711;52.266;10.542;2022-07-24T14:53:50;3.67;;;3.38;;
73474;SDS011;61711;52.266;10.542;2022-07-24T14:56:17;4.28;;;3.88;;
73474;SDS011;61711;52.266;10.542;2022-07-24T14:58:43;7.30;;;5.03;;
73474;SDS011;61711;52.266;10.542;2022-07-24T15:01:08;5.28;;;3.67;;
73474;SDS011;61711;52.266;10.542;2022-07-24T15:03:34;3.90;;;3.50;;